createdAt,value
2018-10-18T00:01:53.003Z,70.70
2018-10-18T00:04:37.941Z,70.60
2018-10-18T00:07:07.174Z,70.80
2018-10-18T00:09:35.722Z,70.70
2018-10-18T00:12:04.437Z,71.40
2018-10-18T00:14:33.116Z,70.80
2018-10-18T00:17:01.697Z,70.80
2018-10-18T00:19:30.250Z,71.60
2018-10-18T00:21:58.832Z,70.70
2018-10-18T00:24:27.360Z,71.60
2018-10-18T00:26:55.896Z,71.10
2018-10-18T00:29:24.474Z,71.00
2018-10-18T00:31:53.028Z,71.10
2018-10-18T00:34:21.593Z,71.10
2018-10-18T00:36:50.113Z,71.10
2018-10-18T00:39:18.641Z,71.20
2018-10-18T00:41:47.239Z,71.30
2018-10-18T00:44:15.846Z,71.50
2018-10-18T00:46:44.372Z,71.70
2018-10-18T00:49:13.261Z,71.80
2018-10-18T00:51:41.946Z,71.70
2018-10-18T00:54:10.620Z,71.80
2018-10-18T00:56:39.162Z,71.80
2018-10-18T00:59:07.686Z,71.80
2018-10-18T01:01:36.311Z,72.10
2018-10-18T01:04:05.144Z,71.80
2018-10-18T01:06:33.688Z,72.70
2018-10-18T01:09:02.410Z,71.80
2018-10-18T01:11:30.974Z,72.80
2018-10-18T01:13:59.586Z,71.80
2018-10-18T01:16:28.067Z,71.90
2018-10-18T01:18:56.601Z,71.90
2018-10-18T01:21:25.177Z,71.90
2018-10-18T01:23:53.726Z,72.10
2018-10-18T01:26:22.258Z,72.20
2018-10-18T01:28:50.814Z,72.10
2018-10-18T01:31:19.381Z,72.20
2018-10-18T01:33:48.221Z,72.20
2018-10-18T01:36:17.225Z,72.40
2018-10-18T01:38:45.752Z,72.50
2018-10-18T01:41:14.295Z,72.60
2018-10-18T01:43:42.817Z,72.70
2018-10-18T01:46:11.447Z,72.60
2018-10-18T01:48:39.962Z,72.90
2018-10-18T01:51:08.521Z,72.80
2018-10-18T01:53:37.095Z,73.00
2018-10-18T01:56:05.873Z,73.00
2018-10-18T01:58:34.410Z,73.00
2018-10-18T02:01:02.972Z,73.10
2018-10-18T02:03:31.543Z,73.00
2018-10-18T02:06:00.150Z,73.10
2018-10-18T02:08:28.781Z,73.30
2018-10-18T02:10:57.328Z,73.10
2018-10-18T02:13:25.891Z,73.40
2018-10-18T02:15:54.787Z,73.50
2018-10-18T02:18:23.965Z,73.70
2018-10-18T02:20:52.697Z,73.60
2018-10-18T02:23:21.473Z,73.70
2018-10-18T02:25:50.046Z,73.70
2018-10-18T02:28:18.592Z,73.90
2018-10-18T02:30:47.194Z,73.90
2018-10-18T02:33:15.740Z,73.90
2018-10-18T02:35:44.715Z,73.80
2018-10-18T02:38:13.317Z,73.90
2018-10-18T02:40:41.940Z,73.80
2018-10-18T02:43:10.530Z,73.90
2018-10-18T02:45:39.065Z,73.90
2018-10-18T02:48:07.776Z,73.80
2018-10-18T02:50:36.431Z,73.80
2018-10-18T02:53:05.242Z,73.90
2018-10-18T02:55:33.762Z,74.00
2018-10-18T02:58:04.656Z,74.10
2018-10-18T03:00:33.907Z,74.20
2018-10-18T03:03:02.463Z,74.30
2018-10-18T03:05:31.101Z,74.50
2018-10-18T03:07:59.796Z,75.50
2018-10-18T03:10:28.472Z,74.50
2018-10-18T03:12:57.146Z,74.70
2018-10-18T03:15:25.798Z,74.70
2018-10-18T03:17:54.372Z,74.70
2018-10-18T03:20:23.250Z,74.20
2018-10-18T03:22:51.796Z,74.80
2018-10-18T03:25:20.371Z,74.90
2018-10-18T03:27:48.996Z,74.90
2018-10-18T03:30:17.573Z,74.80
2018-10-18T03:32:46.069Z,74.80
2018-10-18T03:35:14.729Z,74.70
2018-10-18T03:37:43.236Z,75.60
2018-10-18T03:40:11.785Z,74.90
2018-10-18T03:42:40.396Z,75.00
2018-10-18T03:45:09.124Z,75.10
2018-10-18T03:47:37.748Z,75.10
2018-10-18T03:50:06.358Z,75.50
2018-10-18T03:52:34.921Z,75.50
2018-10-18T03:55:03.606Z,75.90
2018-10-18T03:57:32.173Z,76.10
2018-10-18T04:00:01.028Z,76.10
2018-10-18T04:02:29.709Z,76.20
2018-10-18T04:04:58.224Z,76.20
2018-10-18T04:07:26.853Z,76.20
2018-10-18T04:09:55.397Z,76.00
2018-10-18T04:12:24.089Z,76.10
2018-10-18T04:14:52.572Z,76.00
2018-10-18T04:17:21.153Z,75.70
2018-10-18T04:19:49.700Z,75.60
2018-10-18T04:22:18.287Z,75.70
2018-10-18T04:24:46.901Z,75.60
2018-10-18T04:27:16.537Z,75.60
2018-10-18T04:29:45.150Z,75.70
2018-10-18T04:32:13.781Z,75.40
2018-10-18T04:34:42.340Z,75.40
2018-10-18T04:37:11.229Z,75.40
2018-10-18T04:39:39.865Z,75.20
2018-10-18T04:42:08.490Z,75.30
2018-10-18T04:44:37.409Z,75.20
2018-10-18T04:47:06.714Z,74.90
2018-10-18T04:49:35.228Z,74.90
2018-10-18T04:52:03.908Z,74.90
2018-10-18T04:54:32.765Z,74.90
2018-10-18T04:57:01.482Z,74.90
2018-10-18T04:59:30.089Z,74.90
2018-10-18T05:01:58.641Z,74.90
2018-10-18T05:04:27.464Z,74.90
2018-10-18T05:06:56.111Z,75.00
2018-10-18T05:09:24.806Z,75.10
2018-10-18T05:11:53.521Z,75.00
2018-10-18T05:14:22.088Z,75.00
2018-10-18T05:16:50.709Z,75.00
2018-10-18T05:19:19.549Z,75.00
2018-10-18T05:21:48.203Z,75.10
2018-10-18T05:24:16.945Z,75.00
2018-10-18T05:26:45.509Z,75.00
2018-10-18T05:29:14.126Z,75.20
2018-10-18T05:31:42.768Z,75.10
2018-10-18T05:34:11.393Z,75.20
2018-10-18T05:36:39.935Z,75.20
2018-10-18T05:39:10.889Z,75.20
2018-10-18T05:41:39.841Z,75.30
2018-10-18T05:44:08.456Z,75.30
2018-10-18T05:46:37.117Z,75.40
2018-10-18T05:49:05.764Z,75.70
2018-10-18T05:51:34.298Z,75.70
2018-10-18T05:54:03.039Z,75.90
2018-10-18T05:56:31.608Z,75.90
2018-10-18T05:59:00.495Z,76.00
2018-10-18T06:01:29.189Z,76.00
2018-10-18T06:03:57.872Z,76.10
2018-10-18T06:06:26.987Z,76.10
2018-10-18T06:08:56.148Z,75.00
2018-10-18T06:11:28.304Z,75.60
2018-10-18T06:13:57.596Z,75.80
2018-10-18T06:16:29.662Z,75.70
2018-10-18T06:19:03.351Z,75.50
2018-10-18T06:21:34.762Z,75.50
2018-10-18T06:24:03.828Z,75.50
2018-10-18T06:26:33.343Z,75.20
2018-10-18T06:29:03.275Z,75.10
2018-10-18T06:31:32.626Z,75.00
2018-10-18T06:34:03.769Z,75.00
2018-10-18T06:36:40.928Z,74.80
2018-10-18T06:39:12.149Z,74.90
2018-10-18T06:41:41.667Z,76.00
2018-10-18T06:44:13.783Z,75.20
2018-10-18T06:46:43.646Z,75.20
2018-10-18T06:49:13.058Z,75.10
2018-10-18T06:51:42.793Z,74.90
2018-10-18T06:54:12.542Z,75.60
2018-10-18T06:56:41.431Z,74.70
2018-10-18T06:59:10.088Z,74.70
2018-10-18T07:01:38.844Z,75.30
2018-10-18T07:04:08.004Z,74.80
2018-10-18T07:06:38.185Z,74.80
2018-10-18T07:09:09.459Z,74.50
2018-10-18T07:11:38.174Z,74.10
2018-10-18T07:14:06.792Z,74.40
2018-10-18T07:16:35.429Z,74.40
2018-10-18T07:19:04.205Z,74.20
2018-10-18T07:21:33.105Z,73.90
2018-10-18T07:24:01.810Z,73.80
2018-10-18T07:26:30.546Z,73.80
2018-10-18T07:28:59.355Z,73.80
2018-10-18T07:31:28.402Z,73.30
2018-10-18T07:33:57.064Z,73.30
2018-10-18T07:36:26.352Z,73.00
2018-10-18T07:38:55.708Z,73.10
2018-10-18T07:41:25.869Z,73.00
2018-10-18T07:43:54.690Z,73.40
2018-10-18T07:46:23.393Z,73.50
2018-10-18T07:48:52.959Z,73.30
2018-10-18T07:51:22.080Z,73.40
2018-10-18T07:53:52.348Z,73.60
2018-10-18T07:56:21.143Z,73.00
2018-10-18T07:58:49.947Z,72.80
2018-10-18T08:01:18.837Z,72.20
2018-10-18T08:03:49.103Z,71.40
2018-10-18T08:06:18.193Z,71.00
2018-10-18T08:09:03.260Z,71.20
2018-10-18T08:11:32.457Z,71.20
2018-10-18T08:14:02.289Z,72.40
2018-10-18T08:16:31.843Z,70.70
2018-10-18T08:19:00.795Z,70.60
2018-10-18T08:21:31.020Z,71.50
2018-10-18T08:23:59.961Z,70.80
2018-10-18T08:26:28.953Z,70.20
2018-10-18T08:28:57.937Z,70.80
2018-10-18T08:31:26.888Z,70.80
2018-10-18T08:33:55.638Z,70.10
2018-10-18T08:36:24.456Z,70.30
2018-10-18T08:38:53.523Z,70.30
2018-10-18T08:41:22.753Z,70.10
2018-10-18T08:43:51.964Z,69.90
2018-10-18T08:46:20.866Z,70.20
2018-10-18T08:48:50.328Z,70.60
2018-10-18T08:51:19.009Z,70.70
2018-10-18T08:53:48.588Z,70.70
2018-10-18T08:56:17.930Z,70.30
2018-10-18T08:58:51.310Z,70.10
2018-10-18T09:01:20.342Z,68.90
2018-10-18T09:03:49.328Z,69.60
2018-10-18T09:06:18.336Z,69.30
2018-10-18T09:08:47.392Z,69.60
2018-10-18T09:11:16.348Z,68.60
2018-10-18T09:13:45.259Z,69.00
2018-10-18T09:16:14.215Z,69.20
2018-10-18T09:18:43.426Z,68.70
2018-10-18T09:21:12.873Z,68.40
2018-10-18T09:23:42.379Z,68.00
2018-10-18T09:26:12.018Z,67.90
2018-10-18T09:28:41.121Z,68.20
2018-10-18T09:31:11.554Z,68.60
2018-10-18T09:33:40.690Z,67.20
2018-10-18T09:36:09.540Z,67.30
2018-10-18T09:38:38.315Z,67.10
2018-10-18T09:41:07.240Z,66.90
2018-10-18T09:43:36.160Z,67.50
2018-10-18T09:46:06.067Z,67.10
2018-10-18T09:48:35.683Z,66.80
2018-10-18T09:51:04.717Z,66.50
2018-10-18T09:53:33.633Z,65.90
2018-10-18T09:56:04.611Z,65.60
2018-10-18T09:58:33.977Z,65.80
2018-10-18T10:01:08.891Z,65.80
2018-10-18T10:03:38.943Z,65.20
2018-10-18T10:06:07.921Z,64.70
2018-10-18T10:08:37.595Z,64.30
2018-10-18T10:11:06.355Z,63.80
2018-10-18T10:13:35.436Z,63.00
2018-10-18T10:16:04.072Z,63.00
2018-10-18T10:18:32.790Z,62.90
2018-10-18T10:21:01.570Z,63.50
2018-10-18T10:23:30.393Z,62.90
2018-10-18T10:25:59.147Z,62.60
2018-10-18T10:28:27.837Z,63.10
2018-10-18T10:30:56.564Z,63.00
2018-10-18T10:33:25.268Z,62.30
2018-10-18T10:35:54.246Z,62.00
2018-10-18T10:38:23.012Z,60.50
2018-10-18T10:40:51.717Z,60.10
2018-10-18T10:43:20.451Z,60.50
2018-10-18T10:45:49.327Z,59.70
2018-10-18T10:48:18.091Z,59.70
2018-10-18T10:50:46.825Z,59.20
2018-10-18T10:53:15.588Z,59.30
2018-10-18T10:55:44.339Z,58.90
2018-10-18T10:58:13.154Z,58.00
2018-10-18T11:01:17.925Z,58.30
2018-10-18T11:03:47.309Z,57.40
2018-10-18T11:06:16.368Z,57.70
2018-10-18T11:08:45.361Z,58.30
2018-10-18T11:11:16.301Z,58.00
2018-10-18T11:13:45.355Z,56.90
2018-10-18T11:16:14.365Z,57.10
2018-10-18T11:18:43.109Z,57.60
2018-10-18T11:21:13.486Z,57.10
2018-10-18T11:23:42.822Z,56.60
2018-10-18T11:26:13.032Z,56.40
2018-10-18T11:28:42.015Z,56.60
2018-10-18T11:31:10.789Z,56.20
2018-10-18T11:33:39.439Z,56.00
2018-10-18T11:36:08.138Z,56.30
2018-10-18T11:38:37.334Z,55.90
2018-10-18T11:41:05.918Z,55.90
2018-10-18T11:43:34.499Z,55.70
2018-10-18T11:46:03.100Z,56.00
2018-10-18T11:48:31.707Z,56.10
2018-10-18T11:51:00.269Z,57.20
2018-10-18T11:53:28.921Z,58.50
2018-10-18T11:55:57.539Z,57.80
2018-10-18T11:58:26.140Z,57.40
2018-10-18T12:00:54.749Z,56.60
2018-10-18T12:03:23.399Z,56.70
2018-10-18T12:05:52.058Z,57.10
2018-10-18T12:08:20.748Z,56.20
2018-10-18T12:10:49.499Z,56.40
2018-10-18T12:13:18.147Z,56.40
2018-10-18T12:15:46.774Z,56.70
2018-10-18T12:18:15.651Z,56.90
2018-10-18T12:20:44.275Z,56.70
2018-10-18T12:23:13.009Z,57.00
2018-10-18T12:25:41.740Z,56.70
2018-10-18T12:28:10.403Z,56.80
2018-10-18T12:30:39.628Z,57.20
2018-10-18T12:33:08.592Z,57.40
2018-10-18T12:35:38.002Z,57.70
2018-10-18T12:38:06.946Z,57.20
2018-10-18T12:40:36.407Z,57.30
2018-10-18T12:43:07.629Z,57.20
2018-10-18T12:45:36.371Z,57.30
2018-10-18T12:48:05.431Z,57.10
2018-10-18T12:50:34.265Z,57.30
2018-10-18T12:53:03.057Z,57.90
2018-10-18T12:55:32.091Z,57.20
2018-10-18T12:58:00.893Z,57.90
2018-10-18T13:00:29.819Z,57.30
2018-10-18T13:02:59.347Z,57.50
2018-10-18T13:05:28.629Z,57.30
2018-10-18T13:07:57.505Z,57.70
2018-10-18T13:10:27.103Z,57.70
2018-10-18T13:12:55.889Z,57.90
2018-10-18T13:15:25.848Z,58.20
2018-10-18T13:17:56.353Z,58.20
2018-10-18T13:20:25.932Z,58.30
2018-10-18T13:22:55.317Z,58.50
2018-10-18T13:25:24.093Z,58.40
2018-10-18T13:27:53.333Z,58.70
2018-10-18T13:30:51.913Z,58.40
2018-10-18T13:33:20.968Z,58.50
2018-10-18T13:35:49.691Z,58.70
2018-10-18T13:38:18.529Z,59.60
2018-10-18T13:40:47.430Z,59.00
2018-10-18T13:43:45.217Z,58.50
2018-10-18T13:46:16.166Z,58.70
2018-10-18T13:48:45.069Z,58.60
2018-10-18T13:51:14.099Z,58.30
2018-10-18T13:53:43.331Z,58.30
2018-10-18T13:56:15.142Z,58.40
2018-10-18T13:58:44.080Z,58.50
2018-10-18T14:01:12.956Z,57.50
2018-10-18T14:03:42.702Z,57.60
2018-10-18T14:06:11.746Z,57.00
2018-10-18T14:08:41.504Z,57.00
2018-10-18T14:11:11.499Z,56.90
2018-10-18T14:13:41.385Z,56.70
2018-10-18T14:16:15.199Z,56.70
2018-10-18T14:18:44.157Z,57.30
2018-10-18T14:21:13.204Z,57.10
2018-10-18T14:23:42.064Z,57.30
2018-10-18T14:26:14.268Z,57.80
2018-10-18T14:29:04.610Z,57.90
2018-10-18T14:31:36.103Z,58.10
2018-10-18T14:34:05.368Z,57.70
2018-10-18T14:36:34.273Z,58.00
2018-10-18T14:39:03.419Z,57.40
2018-10-18T14:41:32.423Z,57.90
2018-10-18T14:44:01.515Z,57.50
2018-10-18T14:46:30.364Z,57.30
2018-10-18T14:49:00.516Z,58.00
2018-10-18T14:51:29.604Z,57.80
2018-10-18T14:53:58.417Z,56.30
2018-10-18T14:56:27.331Z,55.80
2018-10-18T14:58:56.168Z,55.20
2018-10-18T15:01:25.288Z,54.10
2018-10-18T15:03:53.992Z,54.50
2018-10-18T15:06:22.844Z,54.70
2018-10-18T15:08:51.835Z,54.60
2018-10-18T15:11:21.185Z,55.00
2018-10-18T15:13:51.162Z,55.40
2018-10-18T15:16:20.327Z,56.20
2018-10-18T15:18:50.283Z,56.90
2018-10-18T15:21:19.500Z,57.30
2018-10-18T15:23:48.494Z,57.90
2018-10-18T15:26:17.894Z,58.10
2018-10-18T15:28:46.789Z,58.60
2018-10-18T15:31:16.088Z,58.50
2018-10-18T15:33:44.996Z,58.40
2018-10-18T15:36:19.668Z,58.60
2018-10-18T15:38:49.761Z,59.00
2018-10-18T15:41:20.101Z,59.20
2018-10-18T15:43:49.061Z,59.40
2018-10-18T15:46:18.532Z,59.40
2018-10-18T15:48:47.325Z,59.80
2018-10-18T15:51:16.547Z,59.80
2018-10-18T15:53:51.742Z,59.50
2018-10-18T15:56:21.105Z,60.00
2018-10-18T15:58:50.196Z,59.90
2018-10-18T16:01:19.411Z,60.30
2018-10-18T16:03:48.248Z,60.00
2018-10-18T16:06:17.097Z,60.70
2018-10-18T16:08:45.932Z,60.70
2018-10-18T16:11:14.834Z,60.90
2018-10-18T16:13:44.104Z,61.30
2018-10-18T16:16:13.033Z,61.40
2018-10-18T16:18:42.766Z,60.60
2018-10-18T16:21:15.057Z,61.50
2018-10-18T16:23:46.736Z,62.90
2018-10-18T16:26:16.256Z,62.10
2018-10-18T16:28:47.234Z,62.40
2018-10-18T16:31:28.572Z,62.90
2018-10-18T16:34:00.196Z,63.10
2018-10-18T16:36:30.496Z,62.90
2018-10-18T16:38:59.401Z,62.80
2018-10-18T16:41:46.248Z,63.20
2018-10-18T16:44:19.609Z,63.50
2018-10-18T16:49:28.695Z,63.60
2018-10-18T16:51:57.720Z,63.50
2018-10-18T16:54:26.576Z,63.30
2018-10-18T16:56:55.608Z,63.90
2018-10-18T16:59:29.354Z,63.70
2018-10-18T17:02:11.557Z,63.70
2018-10-18T17:04:41.558Z,63.70
2018-10-18T17:07:11.297Z,64.20
2018-10-18T17:09:42.464Z,64.20
2018-10-18T17:12:11.357Z,64.50
2018-10-18T17:14:40.384Z,64.30
2018-10-18T17:17:09.109Z,64.60
2018-10-18T17:19:38.228Z,64.60
2018-10-18T17:22:07.237Z,64.60
2018-10-18T17:24:37.154Z,64.60
2018-10-18T17:27:06.296Z,64.70
2018-10-18T17:29:35.168Z,64.80
2018-10-18T17:32:04.091Z,64.80
2018-10-18T17:34:32.884Z,64.80
2018-10-18T17:37:01.813Z,65.00
2018-10-18T17:39:30.912Z,64.90
2018-10-18T17:41:59.730Z,65.00
2018-10-18T17:44:28.741Z,65.00
2018-10-18T17:46:57.495Z,65.10
2018-10-18T17:49:26.477Z,65.30
2018-10-18T17:51:55.198Z,65.30
2018-10-18T17:54:24.230Z,65.50
2018-10-18T17:56:54.497Z,65.50
2018-10-18T17:59:24.328Z,65.70
2018-10-18T18:04:44.051Z,65.70
2018-10-18T18:08:08.885Z,65.70
2018-10-18T18:10:38.497Z,65.50
2018-10-18T18:13:07.333Z,66.20
2018-10-18T18:15:36.083Z,66.40
2018-10-18T18:18:05.093Z,66.60
2018-10-18T18:20:33.985Z,66.70
2018-10-18T18:23:02.858Z,66.50
2018-10-18T18:25:32.118Z,66.40
2018-10-18T18:28:01.004Z,66.60
2018-10-18T18:30:30.466Z,66.90
2018-10-18T18:32:59.411Z,67.10
2018-10-18T18:35:28.477Z,67.20
2018-10-18T18:37:57.297Z,66.90
2018-10-18T18:40:26.251Z,66.60
2018-10-18T18:42:54.958Z,66.90
2018-10-18T18:45:24.806Z,67.00
2018-10-18T18:47:53.532Z,67.00
2018-10-18T18:50:22.276Z,67.00
2018-10-18T18:52:51.179Z,67.10
2018-10-18T18:55:20.119Z,67.40
2018-10-18T18:57:48.936Z,67.50
2018-10-18T19:00:17.851Z,67.30
2018-10-18T19:02:46.731Z,67.30
2018-10-18T19:05:15.684Z,67.30
2018-10-18T19:07:44.469Z,67.20
2018-10-18T19:10:13.689Z,67.40
2018-10-18T19:12:42.631Z,67.30
2018-10-18T19:15:11.441Z,67.30
2018-10-18T19:17:40.653Z,67.30
2018-10-18T19:20:09.764Z,67.50
2018-10-18T19:22:39.364Z,67.50
2018-10-18T19:25:08.650Z,67.60
2018-10-18T19:27:37.757Z,67.50
2018-10-18T19:30:08.266Z,67.60
2018-10-18T19:32:37.258Z,67.90
2018-10-18T19:35:06.240Z,67.70
2018-10-18T19:37:34.954Z,67.80
2018-10-18T19:40:03.754Z,67.90
2018-10-18T19:42:33.102Z,68.10
2018-10-18T19:45:01.853Z,67.90
2018-10-18T19:47:30.798Z,67.80
2018-10-18T19:50:00.768Z,67.80
2018-10-18T19:52:30.340Z,68.20
2018-10-18T19:54:58.909Z,68.20
2018-10-18T19:57:27.705Z,68.20
2018-10-18T19:59:56.805Z,68.00
2018-10-18T20:02:25.495Z,68.20
2018-10-18T20:04:54.302Z,69.00
2018-10-18T20:07:23.148Z,67.80
2018-10-18T20:09:51.880Z,67.90
2018-10-18T20:12:20.496Z,67.80
2018-10-18T20:14:49.205Z,67.70
2018-10-18T20:17:17.891Z,67.60
2018-10-18T20:19:46.516Z,68.50
2018-10-18T20:22:15.104Z,67.90
2018-10-18T20:24:43.960Z,67.70
2018-10-18T20:27:12.513Z,67.70
2018-10-18T20:29:41.601Z,67.80
2018-10-18T20:32:10.196Z,67.80
2018-10-18T20:34:38.805Z,67.70
2018-10-18T20:37:07.482Z,67.60
2018-10-18T20:39:36.166Z,68.00
2018-10-18T20:42:04.749Z,68.70
2018-10-18T20:44:33.381Z,67.80
2018-10-18T20:47:02.120Z,67.70
2018-10-18T20:49:30.753Z,67.70
2018-10-18T20:51:59.400Z,67.70
2018-10-18T20:54:28.004Z,67.80
2018-10-18T20:56:56.717Z,67.90
2018-10-18T20:59:25.330Z,68.00
2018-10-18T21:01:53.976Z,68.00
2018-10-18T21:04:22.580Z,68.00
2018-10-18T21:06:51.288Z,68.00
2018-10-18T21:09:19.899Z,67.90
2018-10-18T21:11:48.530Z,68.10
2018-10-18T21:14:17.246Z,67.90
2018-10-18T21:16:45.929Z,67.90
2018-10-18T21:19:14.525Z,67.80
2018-10-18T21:21:43.201Z,68.30
2018-10-18T21:24:11.831Z,67.50
2018-10-18T21:26:40.435Z,67.50
2018-10-18T21:29:09.249Z,67.50
2018-10-18T21:31:37.841Z,67.20
2018-10-18T21:34:06.541Z,67.10
2018-10-18T21:36:40.709Z,66.80
2018-10-18T21:39:09.748Z,67.10
2018-10-18T21:41:38.501Z,67.00
2018-10-18T21:44:07.094Z,66.60
2018-10-18T21:46:37.632Z,66.70
2018-10-18T21:49:09.680Z,66.60
2018-10-18T21:51:39.201Z,67.30
2018-10-18T21:54:07.807Z,66.20
2018-10-18T21:56:36.426Z,66.20
2018-10-18T21:59:05.212Z,66.10
2018-10-18T22:01:33.829Z,66.10
2018-10-18T22:04:03.426Z,66.10
2018-10-18T22:06:31.997Z,65.90
2018-10-18T22:09:00.606Z,65.90
2018-10-18T22:11:29.257Z,65.70
2018-10-18T22:13:57.877Z,65.80
2018-10-18T22:16:26.509Z,65.70
2018-10-18T22:18:55.137Z,65.80
2018-10-18T22:21:23.836Z,66.00
2018-10-18T22:23:52.551Z,65.70
2018-10-18T22:26:21.217Z,65.50
2018-10-18T22:28:50.200Z,65.60
2018-10-18T22:31:18.972Z,65.70
2018-10-18T22:33:47.702Z,65.50
2018-10-18T22:36:16.618Z,65.60
2018-10-18T22:38:45.239Z,65.70
2018-10-18T22:41:13.915Z,65.60
2018-10-18T22:43:42.445Z,65.40
2018-10-18T22:46:11.101Z,65.40
2018-10-18T22:48:39.728Z,65.40
2018-10-18T22:51:08.389Z,65.60
2018-10-18T22:53:37.379Z,65.30
2018-10-18T22:56:06.159Z,65.50
2018-10-18T22:58:34.815Z,65.60
2018-10-18T23:01:03.550Z,65.40
2018-10-18T23:03:32.201Z,65.70
2018-10-18T23:06:00.841Z,65.50
2018-10-18T23:08:29.430Z,66.10
2018-10-18T23:10:58.013Z,65.70
2018-10-18T23:13:26.681Z,66.00
2018-10-18T23:15:55.567Z,66.30
2018-10-18T23:18:24.217Z,66.20
2018-10-18T23:20:52.876Z,66.10
2018-10-18T23:23:21.488Z,66.30
2018-10-18T23:25:50.112Z,66.10
2018-10-18T23:28:18.715Z,66.20
2018-10-18T23:30:47.325Z,66.60
2018-10-18T23:33:16.009Z,66.70
2018-10-18T23:35:44.618Z,66.60
2018-10-18T23:38:13.240Z,66.60
2018-10-18T23:40:41.909Z,66.40
2018-10-18T23:43:10.548Z,66.80
2018-10-18T23:45:39.215Z,66.90
2018-10-18T23:48:07.913Z,67.00
2018-10-18T23:50:36.492Z,67.10
2018-10-18T23:53:05.182Z,67.20
2018-10-18T23:55:33.792Z,67.00
2018-10-18T23:58:02.549Z,67.30
